createdAt,value
2018-12-24T00:06:36.398Z,99.90
2018-12-24T00:12:32.401Z,99.90
2018-12-24T00:15:01.869Z,99.90
2018-12-24T00:17:50.417Z,99.90
2018-12-24T00:20:19.909Z,99.90
2018-12-24T00:23:08.658Z,99.90
2018-12-24T00:28:26.049Z,99.90
2018-12-24T00:31:14.553Z,99.90
2018-12-24T00:34:03.093Z,99.90
2018-12-24T00:39:21.033Z,99.90
2018-12-24T00:42:15.752Z,99.90
2018-12-24T00:44:59.729Z,99.90
2018-12-24T00:47:29.185Z,99.90
2018-12-24T00:49:58.702Z,99.90
2018-12-24T00:52:28.214Z,99.90
2018-12-24T01:00:52.545Z,99.90
2018-12-24T01:05:57.401Z,99.90
2018-12-24T01:08:45.949Z,99.90
2018-12-24T01:11:34.458Z,99.90
2018-12-24T01:14:03.960Z,99.90
2018-12-24T01:16:52.460Z,99.90
2018-12-24T01:19:41.002Z,99.90
2018-12-24T01:22:22.252Z,99.90
2018-12-24T01:25:03.782Z,99.90
2018-12-24T01:27:45.213Z,99.90
2018-12-24T01:30:26.201Z,99.90
2018-12-24T01:33:07.182Z,99.90
2018-12-24T01:35:47.872Z,99.90
2018-12-24T01:38:36.389Z,99.90
2018-12-24T01:41:24.930Z,99.90
2018-12-24T01:44:13.536Z,99.90
2018-12-24T01:47:02.072Z,99.90
2018-12-24T01:49:50.573Z,99.90
2018-12-24T01:52:20.280Z,99.90
2018-12-24T01:55:08.823Z,99.90
2018-12-24T02:00:45.781Z,99.90
2018-12-24T02:03:34.311Z,99.90
2018-12-24T02:06:22.809Z,99.90
2018-12-24T02:08:52.405Z,99.90
2018-12-24T02:11:40.917Z,99.90
2018-12-24T02:14:29.452Z,99.90
2018-12-24T02:17:17.966Z,99.90
2018-12-24T02:20:06.517Z,99.90
2018-12-24T02:22:47.849Z,99.90
2018-12-24T02:25:28.549Z,99.90
2018-12-24T02:28:09.825Z,99.90
2018-12-24T02:30:50.622Z,99.90
2018-12-24T02:33:31.397Z,99.90
2018-12-24T02:36:12.880Z,99.90
2018-12-24T02:38:54.326Z,99.90
2018-12-24T02:41:35.701Z,99.90
2018-12-24T02:44:05.220Z,99.90
2018-12-24T02:46:53.712Z,99.90
2018-12-24T02:49:42.246Z,99.90
2018-12-24T02:52:30.753Z,99.90
2018-12-24T02:55:19.301Z,99.90
2018-12-24T02:58:07.806Z,99.90
2018-12-24T03:00:56.352Z,99.90
2018-12-24T03:03:44.845Z,99.90
2018-12-24T03:06:33.385Z,99.90
2018-12-24T03:09:22.108Z,99.90
2018-12-24T03:12:10.668Z,99.90
2018-12-24T03:14:40.149Z,99.90
2018-12-24T03:17:28.721Z,99.90
2018-12-24T03:20:17.233Z,99.90
2018-12-24T03:22:58.476Z,99.90
2018-12-24T03:25:39.473Z,99.90
2018-12-24T03:28:20.440Z,99.90
2018-12-24T03:30:49.938Z,99.90
2018-12-24T03:36:54.704Z,99.90
2018-12-24T03:42:50.729Z,99.90
2018-12-24T03:45:20.226Z,99.90
2018-12-24T03:48:08.741Z,99.90
2018-12-24T03:50:57.285Z,99.90
2018-12-24T03:53:45.821Z,99.90
2018-12-24T03:56:34.371Z,99.90
2018-12-24T03:59:22.864Z,99.90
2018-12-24T04:01:52.381Z,99.90
2018-12-24T04:04:40.884Z,99.90
2018-12-24T04:07:10.485Z,99.90
2018-12-24T04:09:58.988Z,99.90
2018-12-24T04:12:28.485Z,99.90
2018-12-24T04:15:16.997Z,99.90
2018-12-24T04:18:05.763Z,99.90
2018-12-24T04:20:54.285Z,99.90
2018-12-24T04:23:23.856Z,99.90
2018-12-24T04:26:12.363Z,99.90
2018-12-24T04:29:00.964Z,99.90
2018-12-24T04:31:49.465Z,99.90
2018-12-24T04:34:38.131Z,99.90
2018-12-24T04:37:26.638Z,99.90
2018-12-24T04:39:56.133Z,99.90
2018-12-24T04:42:44.636Z,99.90
2018-12-24T04:48:27.109Z,99.90
2018-12-24T04:51:15.664Z,99.90
2018-12-24T04:54:04.170Z,99.90
2018-12-24T04:59:46.425Z,99.90
2018-12-24T05:02:34.968Z,99.90
2018-12-24T05:05:23.473Z,99.90
2018-12-24T05:13:41.242Z,99.90
2018-12-24T05:22:24.217Z,99.90
2018-12-24T05:25:05.291Z,99.90
2018-12-24T05:27:46.817Z,99.90
2018-12-24T05:30:28.104Z,99.90
2018-12-24T05:33:07.868Z,99.90
2018-12-24T05:35:56.376Z,99.90
2018-12-24T05:38:44.956Z,99.90
2018-12-24T05:41:33.306Z,99.90
2018-12-24T05:44:21.877Z,99.90
2018-12-24T05:47:10.393Z,99.90
2018-12-24T05:49:58.941Z,99.90
2018-12-24T05:52:47.445Z,99.90
2018-12-24T05:58:29.954Z,99.90
2018-12-24T06:01:18.497Z,99.90
2018-12-24T06:04:07.000Z,99.90
2018-12-24T06:06:55.536Z,99.90
2018-12-24T06:09:44.037Z,99.90
2018-12-24T06:12:13.571Z,99.90
2018-12-24T06:14:43.142Z,99.90
2018-12-24T06:17:12.657Z,99.90
2018-12-24T06:19:42.157Z,99.90
2018-12-24T06:22:11.653Z,99.90
2018-12-24T06:24:41.137Z,99.90
2018-12-24T06:27:10.628Z,99.90
2018-12-24T06:29:40.203Z,99.90
2018-12-24T06:32:09.737Z,99.90
2018-12-24T06:34:39.297Z,99.90
2018-12-24T06:37:08.809Z,99.90
2018-12-24T06:39:38.306Z,99.90
2018-12-24T06:42:07.821Z,99.90
2018-12-24T06:44:37.307Z,99.90
2018-12-24T06:47:06.852Z,99.90
2018-12-24T06:49:36.335Z,99.90
2018-12-24T06:52:05.888Z,99.90
2018-12-24T06:54:35.444Z,99.90
2018-12-24T06:57:04.921Z,99.90
2018-12-24T06:59:34.509Z,99.90
2018-12-24T07:02:04.057Z,99.90
2018-12-24T07:04:33.718Z,99.90
2018-12-24T07:07:03.307Z,99.90
2018-12-24T07:09:32.789Z,99.90
2018-12-24T07:12:02.417Z,99.90
2018-12-24T07:14:31.902Z,99.90
2018-12-24T07:17:01.383Z,99.90
2018-12-24T07:19:31.074Z,99.90
2018-12-24T07:22:00.562Z,99.90
2018-12-24T07:24:30.089Z,99.90
2018-12-24T07:26:59.600Z,99.90
2018-12-24T07:29:29.117Z,99.90
2018-12-24T07:31:58.601Z,99.90
2018-12-24T07:34:32.354Z,99.90
2018-12-24T07:36:59.260Z,99.90
2018-12-24T07:39:28.740Z,99.90
2018-12-24T07:41:58.290Z,99.90
2018-12-24T07:44:27.902Z,99.90
2018-12-24T07:46:57.518Z,99.90
2018-12-24T07:49:27.121Z,99.90
2018-12-24T07:51:56.600Z,99.90
2018-12-24T07:54:26.098Z,99.90
2018-12-24T07:56:55.577Z,99.90
2018-12-24T07:59:25.205Z,99.90
2018-12-24T08:01:54.672Z,99.90
2018-12-24T08:04:24.140Z,99.90
2018-12-24T08:06:53.645Z,99.90
2018-12-24T08:09:23.176Z,99.90
2018-12-24T08:11:52.692Z,99.90
2018-12-24T08:14:22.178Z,99.90
2018-12-24T08:16:51.777Z,99.90
2018-12-24T08:19:21.248Z,99.90
2018-12-24T08:21:50.754Z,99.90
2018-12-24T08:24:20.253Z,99.90
2018-12-24T08:26:52.331Z,99.90
2018-12-24T08:29:20.934Z,99.90
2018-12-24T08:31:50.417Z,99.90
2018-12-24T08:34:19.946Z,99.90
2018-12-24T08:36:49.409Z,99.90
2018-12-24T08:39:18.908Z,99.90
2018-12-24T08:41:48.398Z,99.90
2018-12-24T08:44:17.868Z,99.90
2018-12-24T08:46:47.396Z,99.90
2018-12-24T08:49:17.046Z,99.90
2018-12-24T08:51:47.937Z,99.90
2018-12-24T08:54:17.941Z,99.90
2018-12-24T08:56:47.409Z,99.90
2018-12-24T08:59:16.924Z,99.90
2018-12-24T09:01:46.402Z,99.90
2018-12-24T09:04:15.926Z,99.90
2018-12-24T09:06:45.420Z,99.90
2018-12-24T09:09:15.045Z,99.90
2018-12-24T09:11:44.522Z,99.90
2018-12-24T09:14:14.045Z,99.90
2018-12-24T09:16:43.533Z,99.90
2018-12-24T09:19:13.095Z,99.80
2018-12-24T09:21:42.588Z,99.90
2018-12-24T09:24:12.048Z,99.90
2018-12-24T09:26:41.553Z,99.90
2018-12-24T09:29:11.103Z,99.70
2018-12-24T09:31:40.588Z,99.90
2018-12-24T09:34:10.097Z,99.90
2018-12-24T09:36:39.584Z,99.90
2018-12-24T09:39:09.129Z,99.70
2018-12-24T09:41:38.626Z,99.60
2018-12-24T09:44:08.111Z,99.80
2018-12-24T09:46:37.758Z,99.30
2018-12-24T09:49:07.246Z,99.40
2018-12-24T09:51:36.745Z,98.80
2018-12-24T09:54:06.222Z,98.50
2018-12-24T09:56:35.739Z,98.70
2018-12-24T09:59:05.300Z,98.60
2018-12-24T10:01:35.022Z,98.60
2018-12-24T10:04:12.122Z,98.80
2018-12-24T10:06:42.257Z,99.20
2018-12-24T10:09:13.490Z,98.70
2018-12-24T10:11:42.974Z,99.00
2018-12-24T10:14:12.514Z,98.70
2018-12-24T10:16:41.984Z,99.10
2018-12-24T10:19:11.724Z,98.80
2018-12-24T10:21:41.401Z,97.80
2018-12-24T10:24:11.104Z,98.60
2018-12-24T10:26:40.617Z,99.30
2018-12-24T10:29:10.429Z,99.10
2018-12-24T10:31:39.938Z,98.30
2018-12-24T10:34:09.433Z,98.60
2018-12-24T10:36:39.036Z,98.40
2018-12-24T10:39:09.499Z,98.80
2018-12-24T10:41:39.007Z,98.80
2018-12-24T10:44:08.604Z,98.00
2018-12-24T10:46:38.125Z,96.80
2018-12-24T10:49:07.595Z,96.70
2018-12-24T10:51:37.160Z,96.90
2018-12-24T10:54:07.181Z,97.30
2018-12-24T10:56:36.684Z,96.30
2018-12-24T10:59:06.202Z,95.80
2018-12-24T11:01:35.689Z,96.60
2018-12-24T11:04:05.197Z,95.70
2018-12-24T11:06:34.767Z,95.50
2018-12-24T11:09:05.852Z,95.90
2018-12-24T11:11:36.438Z,95.60
2018-12-24T11:14:05.921Z,96.40
2018-12-24T11:16:35.409Z,96.30
2018-12-24T11:19:04.902Z,95.70
2018-12-24T11:21:34.387Z,96.00
2018-12-24T11:24:04.340Z,95.80
2018-12-24T11:26:33.876Z,96.30
2018-12-24T11:29:03.405Z,95.60
2018-12-24T11:31:32.930Z,94.90
2018-12-24T11:34:02.436Z,95.60
2018-12-24T11:36:33.942Z,95.30
2018-12-24T11:39:03.754Z,95.20
2018-12-24T11:41:33.306Z,95.20
2018-12-24T11:44:02.797Z,94.60
2018-12-24T11:46:32.418Z,94.10
2018-12-24T11:49:01.895Z,94.60
2018-12-24T11:51:31.469Z,94.20
2018-12-24T11:54:01.460Z,94.40
2018-12-24T11:56:30.949Z,94.30
2018-12-24T11:59:00.423Z,94.30
2018-12-24T12:01:29.950Z,94.60
2018-12-24T12:03:59.433Z,94.70
2018-12-24T12:06:28.943Z,94.20
2018-12-24T12:08:58.417Z,94.60
2018-12-24T12:11:27.927Z,94.50
2018-12-24T12:13:57.484Z,94.90
2018-12-24T12:16:26.969Z,94.90
2018-12-24T12:18:56.582Z,94.20
2018-12-24T12:21:26.127Z,93.90
2018-12-24T12:23:55.642Z,94.20
2018-12-24T12:26:25.246Z,94.30
2018-12-24T12:28:54.838Z,93.80
2018-12-24T12:31:25.158Z,93.60
2018-12-24T12:33:54.760Z,93.10
2018-12-24T12:36:24.321Z,93.50
2018-12-24T12:38:53.863Z,93.40
2018-12-24T12:41:23.520Z,93.40
2018-12-24T12:43:53.068Z,94.60
2018-12-24T12:46:22.620Z,95.80
2018-12-24T12:48:52.255Z,96.50
2018-12-24T12:51:21.864Z,96.20
2018-12-24T12:53:51.390Z,97.40
2018-12-24T12:56:20.963Z,98.00
2018-12-24T12:58:50.551Z,98.60
2018-12-24T13:01:20.127Z,98.30
2018-12-24T13:03:49.668Z,99.90
2018-12-24T13:06:19.216Z,99.90
2018-12-24T13:08:48.841Z,99.90
2018-12-24T13:11:18.378Z,99.90
2018-12-24T13:13:47.946Z,99.90
2018-12-24T13:16:17.506Z,99.90
2018-12-24T13:18:47.048Z,99.90
2018-12-24T13:21:17.052Z,99.90
2018-12-24T13:23:46.603Z,99.90
2018-12-24T13:26:16.173Z,99.90
2018-12-24T13:28:45.771Z,99.20
2018-12-24T13:31:15.341Z,98.40
2018-12-24T13:33:44.999Z,95.50
2018-12-24T13:36:14.555Z,96.10
2018-12-24T13:38:44.093Z,96.40
2018-12-24T13:41:13.666Z,97.60
2018-12-24T13:43:43.275Z,98.70
2018-12-24T13:46:14.153Z,99.90
2018-12-24T13:48:43.666Z,99.90
2018-12-24T13:51:13.223Z,99.90
2018-12-24T13:53:42.817Z,99.90
2018-12-24T13:56:12.835Z,99.90
2018-12-24T13:58:42.487Z,99.90
2018-12-24T14:01:12.029Z,99.90
2018-12-24T14:03:41.582Z,99.90
2018-12-24T14:06:11.145Z,99.90
2018-12-24T14:08:40.680Z,99.90
2018-12-24T14:11:10.259Z,99.90
2018-12-24T14:13:39.771Z,99.90
2018-12-24T14:16:16.548Z,99.90
2018-12-24T14:18:40.538Z,99.90
2018-12-24T14:21:10.086Z,99.90
2018-12-24T14:23:39.679Z,99.90
2018-12-24T14:26:09.225Z,99.90
2018-12-24T14:28:38.806Z,99.90
2018-12-24T14:31:08.400Z,99.90
2018-12-24T14:33:37.954Z,99.90
2018-12-24T14:36:07.486Z,99.90
2018-12-24T14:38:37.227Z,99.90
2018-12-24T14:41:06.783Z,99.90
2018-12-24T14:43:36.367Z,99.90
2018-12-24T14:46:05.920Z,99.90
2018-12-24T14:48:35.508Z,99.90
2018-12-24T14:51:05.314Z,99.90
2018-12-24T14:53:34.871Z,99.90
2018-12-24T14:56:04.426Z,99.90
2018-12-24T14:58:34.055Z,99.90
2018-12-24T15:01:03.571Z,99.90
2018-12-24T15:03:33.122Z,99.90
2018-12-24T15:06:02.638Z,99.90
2018-12-24T15:08:32.260Z,99.90
2018-12-24T15:11:01.795Z,99.90
2018-12-24T15:13:31.450Z,99.90
2018-12-24T15:16:01.006Z,99.90
2018-12-24T15:18:30.586Z,99.90
2018-12-24T15:21:00.159Z,99.90
2018-12-24T15:23:29.716Z,99.90
2018-12-24T15:25:59.326Z,99.90
2018-12-24T15:28:28.860Z,99.90
2018-12-24T15:30:58.496Z,99.90
2018-12-24T15:33:28.039Z,99.90
2018-12-24T15:35:57.586Z,99.90
2018-12-24T15:38:27.164Z,99.90
2018-12-24T15:40:56.728Z,99.90
2018-12-24T15:43:26.299Z,99.90
2018-12-24T15:45:55.854Z,99.90
2018-12-24T15:48:25.455Z,99.90
2018-12-24T15:50:55.022Z,99.90
2018-12-24T15:53:24.579Z,99.90
2018-12-24T15:55:54.159Z,99.90
2018-12-24T15:58:23.691Z,99.90
2018-12-24T16:00:53.220Z,99.90
2018-12-24T16:03:22.775Z,99.90
2018-12-24T16:05:52.323Z,99.90
2018-12-24T16:08:21.972Z,99.90
2018-12-24T16:10:51.510Z,99.90
2018-12-24T16:13:21.077Z,99.90
2018-12-24T16:15:50.624Z,99.90
2018-12-24T16:18:20.227Z,99.90
2018-12-24T16:20:49.834Z,99.90
2018-12-24T16:23:19.375Z,99.90
2018-12-24T16:25:48.892Z,99.90
2018-12-24T16:28:18.487Z,99.90
2018-12-24T16:30:48.014Z,99.90
2018-12-24T16:33:17.673Z,99.90
2018-12-24T16:35:47.231Z,99.90
2018-12-24T16:38:16.786Z,99.90
2018-12-24T16:40:46.375Z,99.90
2018-12-24T16:43:15.971Z,99.90
2018-12-24T16:45:45.562Z,99.90
2018-12-24T16:48:15.155Z,99.90
2018-12-24T16:50:44.765Z,99.90
2018-12-24T16:53:14.404Z,99.90
2018-12-24T16:55:43.958Z,99.90
2018-12-24T16:58:13.502Z,99.90
2018-12-24T17:00:43.083Z,99.90
2018-12-24T17:03:12.642Z,99.90
2018-12-24T17:05:42.346Z,99.90
2018-12-24T17:08:11.908Z,99.90
2018-12-24T17:10:41.444Z,99.90
2018-12-24T17:13:11.046Z,99.90
2018-12-24T17:15:40.619Z,99.90
2018-12-24T17:18:10.198Z,99.90
2018-12-24T17:20:39.751Z,99.90
2018-12-24T17:23:09.290Z,99.90
2018-12-24T17:25:38.860Z,99.90
2018-12-24T17:28:08.414Z,99.90
2018-12-24T17:30:37.994Z,99.90
2018-12-24T17:33:07.503Z,99.90
2018-12-24T17:35:37.055Z,99.90
2018-12-24T17:38:06.628Z,99.90
2018-12-24T17:40:36.211Z,99.90
2018-12-24T17:43:05.718Z,99.90
2018-12-24T17:45:35.271Z,99.90
2018-12-24T17:48:04.785Z,99.90
2018-12-24T17:50:34.327Z,99.90
2018-12-24T17:53:03.871Z,99.90
2018-12-24T17:55:33.592Z,99.90
2018-12-24T17:58:03.394Z,99.90
2018-12-24T18:00:32.924Z,99.90
2018-12-24T18:03:02.487Z,99.90
2018-12-24T18:05:32.022Z,99.90
2018-12-24T18:08:01.614Z,99.90
2018-12-24T18:10:31.167Z,99.90
2018-12-24T18:13:00.711Z,99.90
2018-12-24T18:15:30.278Z,99.90
2018-12-24T18:17:59.848Z,99.90
2018-12-24T18:20:29.473Z,99.90
2018-12-24T18:22:58.998Z,99.90
2018-12-24T18:25:28.870Z,99.90
2018-12-24T18:27:58.445Z,99.90
2018-12-24T18:30:28.041Z,99.90
2018-12-24T18:32:58.384Z,99.90
2018-12-24T18:35:29.400Z,99.90
2018-12-24T18:37:58.958Z,99.90
2018-12-24T18:40:28.523Z,99.90
2018-12-24T18:42:58.103Z,99.90
2018-12-24T18:45:27.665Z,99.90
2018-12-24T18:47:57.183Z,99.90
2018-12-24T18:50:26.790Z,99.90
2018-12-24T18:52:56.314Z,99.90
2018-12-24T18:55:25.896Z,99.90
2018-12-24T18:57:55.423Z,99.90
2018-12-24T19:00:25.004Z,99.90
2018-12-24T19:02:54.520Z,99.90
2018-12-24T19:05:24.960Z,99.90
2018-12-24T19:07:54.508Z,99.90
2018-12-24T19:10:24.067Z,99.90
2018-12-24T19:12:53.605Z,99.90
2018-12-24T19:15:23.175Z,99.90
2018-12-24T19:17:52.695Z,99.90
2018-12-24T19:20:22.264Z,99.90
2018-12-24T19:22:51.828Z,99.90
2018-12-24T19:25:21.395Z,99.90
2018-12-24T19:27:51.043Z,99.90
2018-12-24T19:30:20.587Z,99.90
2018-12-24T19:32:50.110Z,99.90
2018-12-24T19:35:25.859Z,99.90
2018-12-24T19:37:55.414Z,99.90
2018-12-24T19:40:25.119Z,99.90
2018-12-24T19:42:54.684Z,99.90
2018-12-24T19:45:24.210Z,99.90
2018-12-24T19:47:53.803Z,99.90
2018-12-24T19:50:23.332Z,99.90
2018-12-24T19:52:52.890Z,99.90
2018-12-24T19:55:22.454Z,99.90
2018-12-24T19:57:52.002Z,99.90
2018-12-24T20:00:21.580Z,99.90
2018-12-24T20:02:51.126Z,99.90
2018-12-24T20:05:20.686Z,99.90
2018-12-24T20:07:50.296Z,99.90
2018-12-24T20:10:19.812Z,99.90
2018-12-24T20:12:49.342Z,99.90
2018-12-24T20:15:18.900Z,99.90
2018-12-24T20:17:48.466Z,99.90
2018-12-24T20:20:18.262Z,99.90
2018-12-24T20:22:48.274Z,99.90
2018-12-24T20:25:17.931Z,99.90
2018-12-24T20:27:50.302Z,99.90
2018-12-24T20:30:20.227Z,99.90
2018-12-24T20:32:50.311Z,99.90
2018-12-24T20:35:20.287Z,99.90
2018-12-24T20:37:49.823Z,99.90
2018-12-24T20:40:19.380Z,99.90
2018-12-24T20:42:48.936Z,99.90
2018-12-24T20:45:18.500Z,99.90
2018-12-24T20:47:48.191Z,99.90
2018-12-24T20:50:17.750Z,99.90
2018-12-24T20:52:47.291Z,99.90
2018-12-24T20:55:16.855Z,99.90
2018-12-24T20:57:46.409Z,99.90
2018-12-24T21:00:17.179Z,99.90
2018-12-24T21:02:46.742Z,99.90
2018-12-24T21:05:16.456Z,99.90
2018-12-24T21:07:46.050Z,99.90
2018-12-24T21:10:15.982Z,99.90
2018-12-24T21:12:45.809Z,99.90
2018-12-24T21:15:15.641Z,99.90
2018-12-24T21:17:45.618Z,99.90
2018-12-24T21:20:15.135Z,99.90
2018-12-24T21:22:44.718Z,99.90
2018-12-24T21:25:14.260Z,99.90
2018-12-24T21:27:43.823Z,99.90
2018-12-24T21:30:14.539Z,99.90
2018-12-24T21:32:44.059Z,99.90
2018-12-24T21:35:13.655Z,99.90
2018-12-24T21:37:43.292Z,99.90
2018-12-24T21:40:13.266Z,99.90
2018-12-24T21:42:42.886Z,99.90
2018-12-24T21:45:12.380Z,99.90
2018-12-24T21:47:41.952Z,99.90
2018-12-24T21:50:11.482Z,99.90
2018-12-24T21:52:41.121Z,99.90
2018-12-24T21:55:10.639Z,99.90
2018-12-24T21:57:40.789Z,99.90
2018-12-24T22:00:10.727Z,99.90
2018-12-24T22:02:40.283Z,99.90
2018-12-24T22:05:09.908Z,99.90
2018-12-24T22:07:39.509Z,99.90
2018-12-24T22:10:09.055Z,99.90
2018-12-24T22:12:38.931Z,99.90
2018-12-24T22:15:08.479Z,99.90
2018-12-24T22:17:38.018Z,99.90
2018-12-24T22:20:07.583Z,99.90
2018-12-24T22:22:37.123Z,99.90
2018-12-24T22:25:06.788Z,99.90
2018-12-24T22:27:36.342Z,99.90
2018-12-24T22:30:06.222Z,99.90
2018-12-24T22:32:35.783Z,99.90
2018-12-24T22:35:05.369Z,99.90
2018-12-24T22:37:35.039Z,99.90
2018-12-24T22:40:04.795Z,99.90
2018-12-24T22:42:34.337Z,99.90
2018-12-24T22:45:03.926Z,99.90
2018-12-24T22:47:33.459Z,99.90
2018-12-24T22:50:03.063Z,99.90
2018-12-24T22:52:32.653Z,99.90
2018-12-24T22:55:02.196Z,99.90
2018-12-24T22:57:32.695Z,99.90
2018-12-24T23:00:02.262Z,99.90
2018-12-24T23:02:31.843Z,99.90
2018-12-24T23:05:01.452Z,99.90
2018-12-24T23:07:30.975Z,99.90
2018-12-24T23:10:00.537Z,99.90
2018-12-24T23:12:30.078Z,99.90
2018-12-24T23:14:59.686Z,99.90
2018-12-24T23:17:29.309Z,99.90
2018-12-24T23:19:58.873Z,99.90
2018-12-24T23:22:28.470Z,99.90
2018-12-24T23:24:58.049Z,99.90
2018-12-24T23:27:27.670Z,99.90
2018-12-24T23:29:57.215Z,99.90
2018-12-24T23:32:26.755Z,99.90
2018-12-24T23:34:56.315Z,99.90
2018-12-24T23:37:25.846Z,99.90
2018-12-24T23:39:55.454Z,99.90
2018-12-24T23:42:24.986Z,99.90
2018-12-24T23:44:54.510Z,99.90
2018-12-24T23:47:24.079Z,99.90
2018-12-24T23:49:55.305Z,99.90
2018-12-24T23:52:24.887Z,99.90
2018-12-24T23:54:54.431Z,99.90
2018-12-24T23:57:24.006Z,99.90
2018-12-24T23:59:53.548Z,99.90
